createdAt,value
2024-03-16T00:01:28.239Z,15.23
2024-03-16T00:04:11.661Z,13.60
2024-03-16T00:09:54.049Z,14.18
2024-03-16T00:12:26.048Z,13.77
2024-03-16T00:14:57.604Z,13.30
2024-03-16T00:20:57.638Z,13.48
2024-03-16T00:23:30.092Z,12.60
2024-03-16T00:29:19.165Z,13.18
2024-03-16T00:31:50.774Z,16.15
2024-03-16T00:34:22.371Z,16.17
2024-03-16T00:40:08.777Z,21.33
2024-03-16T00:42:40.561Z,16.20
2024-03-16T00:45:12.653Z,13.32
2024-03-16T00:51:02.315Z,12.77
2024-03-16T00:53:33.942Z,14.95
2024-03-16T00:59:33.634Z,17.38
2024-03-16T01:02:05.339Z,14.57
2024-03-16T01:04:38.159Z,18.08
2024-03-16T01:12:49.931Z,18.63
2024-03-16T01:15:24.932Z,13.90
2024-03-16T01:17:56.463Z,17.92
2024-03-16T01:20:29.312Z,20.63
2024-03-16T01:23:01.833Z,13.98
2024-03-16T01:25:33.392Z,14.98
2024-03-16T01:28:05.574Z,13.55
2024-03-16T01:30:39.744Z,17.35
2024-03-16T01:33:11.599Z,17.60
2024-03-16T01:35:44.315Z,15.73
2024-03-16T01:38:15.837Z,21.58
2024-03-16T01:40:47.916Z,20.63
2024-03-16T01:43:19.798Z,19.42
2024-03-16T01:49:21.864Z,23.08
2024-03-16T01:51:53.338Z,15.27
2024-03-16T02:27:49.874Z,9.43
2024-03-16T02:30:24.235Z,13.45
2024-03-16T02:32:55.754Z,8.55
2024-03-16T02:35:28.302Z,7.22
2024-03-16T02:37:59.912Z,7.88
2024-03-16T02:40:31.843Z,5.88
2024-03-16T02:43:04.623Z,8.15
2024-03-16T03:21:09.656Z,6.78
2024-03-16T03:23:41.106Z,9.00
2024-03-16T03:26:20.605Z,8.32
2024-03-16T03:28:51.956Z,6.50
2024-03-16T03:31:23.330Z,7.47
2024-03-16T03:33:54.790Z,7.13
2024-03-16T03:42:49.579Z,5.97
2024-03-16T03:45:39.269Z,4.40
2024-03-16T03:50:59.769Z,4.05
2024-03-16T03:53:33.347Z,5.00
2024-03-16T03:59:15.853Z,7.95
2024-03-16T04:01:48.356Z,4.60
2024-03-16T04:04:19.818Z,4.53
2024-03-16T04:10:10.437Z,3.83
2024-03-16T04:12:41.935Z,5.60
2024-03-16T04:15:16.236Z,5.57
2024-03-16T04:21:07.444Z,4.22
2024-03-16T04:23:38.945Z,3.17
2024-03-16T04:26:22.386Z,7.85
2024-03-16T04:28:54.066Z,3.78
2024-03-16T04:31:28.257Z,8.80
2024-03-16T04:33:59.688Z,3.42
2024-03-16T04:39:45.044Z,4.53
2024-03-16T04:42:16.664Z,5.38
2024-03-16T04:44:48.121Z,4.18
2024-03-16T04:50:49.240Z,6.80
2024-03-16T04:53:20.822Z,3.85
2024-03-16T04:56:05.355Z,6.93
2024-03-16T04:58:36.779Z,5.85
2024-03-16T05:01:10.910Z,7.15
2024-03-16T05:03:42.395Z,6.00
2024-03-16T05:27:21.391Z,2.67
2024-03-16T05:29:52.976Z,6.32
2024-03-16T05:32:24.521Z,5.00
2024-03-16T05:34:56.722Z,3.22
2024-03-16T05:44:32.633Z,3.30
2024-03-16T05:47:34.809Z,2.10
2024-03-16T05:50:09.982Z,2.97
2024-03-16T05:52:41.784Z,3.58
2024-03-16T05:55:13.254Z,4.78
2024-03-16T06:01:02.696Z,4.53
2024-03-16T06:03:34.740Z,4.93
2024-03-16T06:06:33.619Z,4.28
2024-03-16T06:09:07.821Z,4.75
2024-03-16T06:11:41.420Z,4.75
2024-03-16T06:14:13.506Z,3.80
2024-03-16T06:20:04.587Z,7.45
2024-03-16T06:22:38.655Z,4.05
2024-03-16T06:25:12.077Z,9.40
2024-03-16T06:31:01.377Z,7.30
2024-03-16T06:33:33.370Z,2.40
2024-03-16T06:39:15.097Z,4.32
2024-03-16T06:41:46.969Z,5.75
2024-03-16T06:44:18.613Z,5.55
2024-03-16T06:47:15.670Z,4.43
2024-03-16T06:49:47.148Z,4.72
2024-03-16T06:52:25.786Z,7.50
2024-03-16T06:55:00.077Z,3.33
2024-03-16T06:57:44.239Z,8.95
2024-03-16T07:00:16.969Z,5.00
2024-03-16T07:02:48.526Z,6.55
2024-03-16T07:05:19.991Z,3.22
2024-03-16T07:15:14.338Z,6.32
2024-03-16T07:20:56.033Z,4.55
2024-03-16T07:23:29.873Z,4.63
2024-03-16T07:26:01.538Z,3.83
2024-03-16T07:28:36.717Z,7.63
2024-03-16T07:31:10.159Z,3.67
2024-03-16T07:33:41.820Z,5.47
2024-03-16T07:40:05.689Z,3.25
2024-03-16T07:42:42.808Z,5.10
2024-03-16T07:45:15.958Z,3.92
2024-03-16T07:51:48.531Z,6.40
2024-03-16T07:54:20.133Z,5.30
2024-03-16T08:00:13.829Z,3.53
2024-03-16T08:02:45.376Z,6.50
2024-03-16T08:05:17.024Z,7.28
2024-03-16T08:10:56.433Z,3.72
2024-03-16T08:13:28.931Z,4.85
2024-03-16T08:19:21.206Z,3.90
2024-03-16T08:21:53.013Z,2.50
2024-03-16T08:24:24.442Z,5.60
2024-03-16T08:30:05.353Z,7.95
2024-03-16T08:32:37.100Z,4.63
2024-03-16T08:35:11.914Z,6.43
2024-03-16T08:41:06.291Z,6.43
2024-03-16T08:43:37.922Z,6.28
2024-03-16T08:49:27.351Z,5.63
2024-03-16T08:52:02.281Z,10.15
2024-03-16T08:54:34.251Z,8.88
2024-03-16T09:00:22.738Z,5.35
2024-03-16T09:02:54.291Z,5.50
2024-03-16T09:05:27.109Z,7.35
2024-03-16T09:08:02.387Z,6.47
2024-03-16T09:10:38.641Z,4.97
2024-03-16T09:13:11.742Z,5.28
2024-03-16T09:19:00.760Z,3.95
2024-03-16T09:21:32.353Z,4.45
2024-03-16T09:24:10.537Z,5.75
2024-03-16T09:33:22.019Z,3.47
2024-03-16T09:39:12.143Z,4.13
2024-03-16T09:41:47.893Z,5.05
